Hlavní strana
METAR-TAF:

METAR-TAF

Letiště :

Sfax, Tunisko

zeměpisná šířka: 34-43N, zeměpisná délka: 010-41E, výška: 21 m

Aktuální stav počasí

Zpráva byla vytvořena před 27 minutami, v 01:00 UTC
Bezvětří
Teplota 8°C
Vlhkost vzduchu 71%
Tlak 1025 hPa
Viditelnost 10 km a více
Skoro jasno ve výšce 3000 ft

METAR: DTTX 200100Z 00000KT 9999 FEW030 08/03 Q1025

Čas: 02:27 (01:27 UTC)

Předpověď počasí

Zpráva byla vytvořena před 2 hodinami a 27 minutami, v 23:00 UTC
Předpověď platná od 20 v 00 UTC do 20 v 24 UTC
Severozápadní vítr 5 kt
Viditelnost 10 km a více
Skoro jasno ve výšce 3000 ft
Změna
od 20 v 08 UTC do 20 v 10 UTC
Severoseverozápadní vítr 15 kt

TAF: DTTX 192300Z 2000/2024 32005KT 9999 FEW030 BECMG 2008/2010 33015KT

Stav a předpovědi počasí z více než 4 000 letišť (zprávy METAR a TAF).

Červené a žluté tečky na mapě představují dostupné meteorologické stanice.

Když kurzor umístíte na tečku, zobrazí se název stanice.

Pak kliknutím zobrazíte stav a předpověď počasí.

Chcete-li změnit mapu, kliknutím na zelené tlačítko se znaménkem +mapu přiblížíte, kliknutím na zelené tlačítko se znaménkem – mapu oddálíte a kliknutím na zelené šipky přejdete na sousední mapy.


METAR-TAF: